This is the latest recevied weather packets stored in our database for station/object DB0NU-15. If no packets are shown the sender has not sent any weather packets the latest 1 day(s).
| Time | Temp. | Humidity | Pressure | Rain* | Wind** | Luminosity | Snow |
|---|---|---|---|---|---|---|---|
| 1777990218 | 20.56° C | 54% | 1007.1 hPa | 0 mm | 0.89 m/s, 352° | - | - |
| 1777989675 | 21.11° C | 52% | 1007 hPa | 0 mm | 0.89 m/s, 26° | - | - |
| 1777989072 | 21.11° C | 54% | 1007.2 hPa | 0 mm | 1.34 m/s, 352° | - | - |
| 1777988468 | 20.56° C | 52% | 1007.3 hPa | 0 mm | 1.79 m/s, 326° | - | - |
| 1777987865 | 21.67° C | 51% | 1007.5 hPa | 0 mm | 0.89 m/s, 50° | - | - |
| 1777987261 | 20.56° C | 53% | 1007.7 hPa | 0 mm | 1.34 m/s, 312° | - | - |
| 1777986658 | 21.11° C | 51% | 1007.8 hPa | 0 mm | 0.45 m/s, 346° | - | - |
| 1777986055 | 20.56° C | 52% | 1007.8 hPa | 0 mm | 1.34 m/s, 312° | - | - |
| 1777984848 | 21.67° C | 49% | 1008.1 hPa | 0 mm | 0.45 m/s, 36° | - | - |
| 1777984244 | 22.22° C | 48% | 1008 hPa | 0 mm | 0.89 m/s, 27° | - | - |
| 1777983641 | 21.67° C | 49% | 1008.1 hPa | 0 mm | 0.45 m/s, 55° | - | - |
| 1777983037 | 21.67° C | 50% | 1008.3 hPa | 0 mm | 1.79 m/s, 21° | - | - |
| 1777982434 | 21.11° C | 52% | 1008.5 hPa | 0 mm | 1.34 m/s, 319° | - | - |
| 1777981831 | 21.11° C | 53% | 1008.5 hPa | 0 mm | 1.34 m/s, 310° | - | - |
| 1777981227 | 22.22° C | 52% | 1008.5 hPa | 0 mm | 0.89 m/s, 18° | - | - |
| 1777980624 | 22.22° C | 52% | 1008.6 hPa | 0 mm | 0.89 m/s, 38° | - | - |
| 1777980020 | 21.11° C | 55% | 1008.7 hPa | 0 mm | 0.89 m/s, 28° | - | - |
| 1777979417 | 20.56° C | 56% | 1008.7 hPa | 0 mm | 0.89 m/s, 77° | - | - |
| 1777978270 | 21.11° C | 55% | 1008.9 hPa | 0 mm | 0.89 m/s, 46° | - | - |
| 1777977667 | 20.56° C | 59% | 1009 hPa | 0 mm | 0.89 m/s, 52° | - | - |
| 1777977064 | 21.11° C | 57% | 1009.1 hPa | 0 mm | 1.34 m/s, 20° | - | - |
| 1777976460 | 21.11° C | 60% | 1009.3 hPa | 0 mm | 0.45 m/s, 56° | - | - |
| 1777975857 | 20.56° C | 61% | 1009.3 hPa | 0 mm | 0.89 m/s, 30° | - | - |
| 1777975253 | 20.56° C | 61% | 1009.4 hPa | 0 mm | 1.34 m/s, 14° | - | - |
| 1777974650 | 20° C | 66% | 1009.5 hPa | 0 mm | 0.89 m/s, 23° | - | - |
* Rain latest hour (hover to see other rain measurements)
** Current wind speed in m/s (hover to see current wind gust speed)